createdAt,value
2023-01-13T00:01:06.225Z,85.22
2023-01-13T00:05:08.039Z,85.22
2023-01-13T00:10:08.463Z,85.23
2023-01-13T00:15:08.225Z,85.23
2023-01-13T00:20:08.033Z,85.22
2023-01-13T00:25:07.808Z,85.23
2023-01-13T00:30:08.610Z,85.26
2023-01-13T00:35:08.338Z,85.26
2023-01-13T00:40:08.141Z,85.28
2023-01-13T00:45:07.930Z,85.27
2023-01-13T00:50:08.746Z,85.28
2023-01-13T00:55:08.647Z,85.27
2023-01-13T01:00:08.394Z,85.28
2023-01-13T01:05:08.152Z,85.27
2023-01-13T01:10:07.953Z,85.3
2023-01-13T01:15:07.716Z,85.3
2023-01-13T01:20:08.495Z,85.3
2023-01-13T01:25:08.293Z,85.29
2023-01-13T01:30:08.099Z,85.29
2023-01-13T01:35:07.877Z,85.28
2023-01-13T01:40:08.669Z,85.31
2023-01-13T01:45:08.449Z,85.3
2023-01-13T01:50:08.362Z,85.31
2023-01-13T01:55:08.145Z,85.3
2023-01-13T02:00:07.930Z,85.33
2023-01-13T02:05:07.727Z,85.31
2023-01-13T02:10:08.540Z,85.32
2023-01-13T02:15:08.289Z,85.31
2023-01-13T02:20:08.056Z,85.32
2023-01-13T02:25:07.827Z,85.32
2023-01-13T02:30:18.703Z,85.33
2023-01-13T02:35:08.529Z,85.34
2023-01-13T02:40:08.349Z,85.31
2023-01-13T02:45:08.130Z,85.32
2023-01-13T02:50:07.894Z,85.35
2023-01-13T02:55:09.034Z,85.34
2023-01-13T03:00:07.808Z,85.31
2023-01-13T03:05:08.587Z,85.34
2023-01-13T03:10:08.406Z,85.33
2023-01-13T03:15:08.168Z,85.32
2023-01-13T03:20:07.965Z,85.32
2023-01-13T03:25:07.752Z,85.3
2023-01-13T03:30:08.531Z,85.33
2023-01-13T03:35:08.302Z,85.33
2023-01-13T03:40:08.097Z,85.33
2023-01-13T03:45:13.781Z,85.33
2023-01-13T03:50:08.577Z,85.32
2023-01-13T03:55:08.409Z,85.32
2023-01-13T04:00:08.168Z,85.34
2023-01-13T04:05:08.002Z,85.33
2023-01-13T04:10:07.792Z,85.33
2023-01-13T04:15:08.551Z,85.35
2023-01-13T04:20:08.357Z,85.35
2023-01-13T04:25:08.151Z,85.35
2023-01-13T04:30:07.967Z,85.34
2023-01-13T04:35:07.767Z,85.34
2023-01-13T04:40:08.563Z,85.34
2023-01-13T04:45:08.353Z,85.35
2023-01-13T04:50:08.114Z,85.34
2023-01-13T04:55:07.938Z,85.35
2023-01-13T05:00:08.736Z,85.33
2023-01-13T05:05:02.675Z,85.33
2023-01-13T05:10:03.517Z,85.33
2023-01-13T05:15:14.978Z,85.33
2023-01-13T05:20:01.894Z,85.35
2023-01-13T05:25:03.649Z,85.33
2023-01-13T05:30:06.939Z,85.32
2023-01-13T05:35:03.379Z,85.31
2023-01-13T05:40:03.591Z,85.33
2023-01-13T05:45:02.584Z,85.31
2023-01-13T05:50:03.623Z,85.31
2023-01-13T05:55:02.651Z,85.3
2023-01-13T06:00:03.031Z,85.31
2023-01-13T06:05:05.202Z,85.33
2023-01-13T06:10:03.616Z,85.35
2023-01-13T06:15:03.820Z,85.34
2023-01-13T06:20:03.543Z,85.33
2023-01-13T06:25:02.444Z,85.3
2023-01-13T06:30:03.258Z,85.32
2023-01-13T06:35:05.267Z,85.31
2023-01-13T06:40:02.457Z,85.3
2023-01-13T06:45:03.275Z,85.3
2023-01-13T06:50:02.359Z,85.3
2023-01-13T06:55:02.688Z,85.29
2023-01-13T07:00:03.277Z,85.31
2023-01-13T07:05:03.113Z,85.3
2023-01-13T07:10:03.834Z,85.29
2023-01-13T07:15:03.093Z,85.29
2023-01-13T07:20:02.111Z,85.29
2023-01-13T07:25:02.810Z,85.29
2023-01-13T07:30:02.935Z,85.28
2023-01-13T07:35:04.476Z,85.28
2023-01-13T07:40:02.484Z,85.28
2023-01-13T07:45:03.016Z,85.27
2023-01-13T07:50:02.011Z,85.28
2023-01-13T07:55:01.924Z,85.28
2023-01-13T08:00:03.537Z,85.32
2023-01-13T08:05:02.718Z,85.29
2023-01-13T08:10:03.735Z,85.28
2023-01-13T08:15:02.833Z,85.28
2023-01-13T08:20:02.951Z,85.29
2023-01-13T08:25:01.905Z,85.3
2023-01-13T08:30:03.036Z,85.29
2023-01-13T08:35:02.906Z,85.31
2023-01-13T08:40:12.968Z,85.31
2023-01-13T08:45:02.094Z,85.31
2023-01-13T08:50:01.989Z,85.29
2023-01-13T08:55:03.495Z,85.29
2023-01-13T09:00:04.093Z,85.29
2023-01-13T09:05:02.241Z,85.29
2023-01-13T09:10:03.408Z,85.29
2023-01-13T09:15:02.334Z,85.29
2023-01-13T09:20:02.273Z,85.3
2023-01-13T09:25:02.191Z,85.28
2023-01-13T09:30:02.377Z,85.29
2023-01-13T09:35:03.553Z,85.29
2023-01-13T09:40:03.371Z,85.28
2023-01-13T09:45:03.543Z,85.28
2023-01-13T09:50:02.664Z,85.26
2023-01-13T09:55:03.250Z,85.26
2023-01-13T10:00:02.408Z,85.27
2023-01-13T10:05:03.132Z,85.21
2023-01-13T10:10:02.140Z,85.23
2023-01-13T10:15:02.031Z,85.21
2023-01-13T10:20:02.181Z,85.19
2023-01-13T10:25:02.216Z,85.2
2023-01-13T10:30:04.861Z,85.18
2023-01-13T10:35:02.924Z,85.19
2023-01-13T10:40:02.837Z,85.17
2023-01-13T10:45:04.937Z,85.14
2023-01-13T10:50:12.734Z,85.15
2023-01-13T10:55:04.681Z,85.15
2023-01-13T11:00:02.778Z,85.14
2023-01-13T11:05:03.767Z,85.13
2023-01-13T11:10:04.725Z,85.14
2023-01-13T11:15:04.655Z,85.13
2023-01-13T11:20:03.228Z,85.14
2023-01-13T11:25:02.903Z,85.15
2023-01-13T11:30:04.053Z,85.15
2023-01-13T11:35:03.216Z,85.16
2023-01-13T11:40:04.869Z,85.17
2023-01-13T11:45:02.916Z,85.2
2023-01-13T11:50:03.239Z,85.22
2023-01-13T11:55:02.132Z,85.22
2023-01-13T12:00:16.346Z,85.22
2023-01-13T12:05:22.877Z,85.21
2023-01-13T12:10:13.671Z,85.19
2023-01-13T12:15:08.662Z,85.16
2023-01-13T12:20:12.672Z,85.16
2023-01-13T12:25:07.223Z,85.15
2023-01-13T12:30:07.650Z,85.13
2023-01-13T12:35:12.595Z,85.11
2023-01-13T12:40:12.654Z,85.09
2023-01-13T12:45:03.432Z,85.06
2023-01-13T12:50:07.383Z,85.06
2023-01-13T12:55:02.844Z,85.06
2023-01-13T13:00:14.523Z,85.06
2023-01-13T13:05:12.281Z,85.06
2023-01-13T13:10:14.795Z,85.09
2023-01-13T13:15:14.474Z,85.08
2023-01-13T13:20:13.835Z,85.1
2023-01-13T13:25:08.188Z,85.18
2023-01-13T13:30:04.881Z,85.11
2023-01-13T13:35:05.883Z,85.09
2023-01-13T13:40:08.125Z,85.06
2023-01-13T13:45:14.211Z,85.07
2023-01-13T13:50:13.141Z,85.08
2023-01-13T13:55:18.133Z,85.08
2023-01-13T14:00:25.697Z,85.09
2023-01-13T14:05:14.505Z,85.09
2023-01-13T14:10:12.261Z,85.12
2023-01-13T14:15:13.236Z,85.12
2023-01-13T14:20:20.277Z,85.14
2023-01-13T14:25:13.001Z,85.15
2023-01-13T14:30:11.848Z,85.16
2023-01-13T14:35:09.967Z,85.16
2023-01-13T14:40:12.852Z,85.16
2023-01-13T14:45:02.644Z,85.18
2023-01-13T14:50:27.642Z,85.2
2023-01-13T14:55:08.548Z,85.2
2023-01-13T15:00:07.001Z,85.19
2023-01-13T15:05:15.936Z,85.19
2023-01-13T15:10:06.784Z,85.19
2023-01-13T15:15:12.724Z,85.19
2023-01-13T15:20:16.679Z,85.21
2023-01-13T15:25:16.254Z,85.19
2023-01-13T15:30:12.506Z,85.21
2023-01-13T15:35:14.195Z,85.22
2023-01-13T15:40:11.999Z,85.22
2023-01-13T15:45:11.735Z,85.24
2023-01-13T15:50:07.573Z,85.25
2023-01-13T15:55:12.421Z,85.28
2023-01-13T16:00:10.389Z,85.24
2023-01-13T16:05:18.759Z,85.24
2023-01-13T16:10:15.275Z,85.24
2023-01-13T16:15:12.024Z,85.23
2023-01-13T16:20:06.042Z,85.22
2023-01-13T16:25:11.101Z,85.22
2023-01-13T16:30:23.367Z,85.2
2023-01-13T16:35:12.091Z,85.2
2023-01-13T16:40:12.869Z,85.18
2023-01-13T16:45:13.872Z,85.17
2023-01-13T16:50:12.728Z,85.16
2023-01-13T16:55:12.442Z,85.15
2023-01-13T17:00:20.751Z,85.15
2023-01-13T17:05:12.530Z,85.15
2023-01-13T17:10:13.519Z,85.15
2023-01-13T17:15:12.293Z,85.13
2023-01-13T17:20:16.494Z,85.15
2023-01-13T17:25:12.736Z,85.15
2023-01-13T17:30:15.055Z,85.14
2023-01-13T17:35:07.093Z,85.15
2023-01-13T17:40:13.478Z,85.13
2023-01-13T17:45:02.912Z,85.14
2023-01-13T17:50:06.754Z,85.13
2023-01-13T17:55:14.879Z,85.14
2023-01-13T18:00:21.362Z,85.12
2023-01-13T18:05:15.700Z,85.11
2023-01-13T18:10:12.654Z,85.11
2023-01-13T18:15:21.689Z,85.13
2023-01-13T18:20:14.526Z,85.13
2023-01-13T18:25:18.541Z,85.14
2023-01-13T18:30:11.133Z,85.11
2023-01-13T18:35:06.751Z,85.13
2023-01-13T18:40:09.447Z,85.12
2023-01-13T18:45:12.300Z,85.13
2023-01-13T18:50:15.422Z,85.15
2023-01-13T18:55:12.597Z,85.14
2023-01-13T19:00:02.817Z,85.14
2023-01-13T19:05:13.744Z,85.14
2023-01-13T19:10:12.573Z,85.14
2023-01-13T19:15:12.363Z,85.15
2023-01-13T19:20:12.070Z,85.15
2023-01-13T19:25:11.817Z,85.16
2023-01-13T19:30:12.714Z,85.16
2023-01-13T19:35:12.509Z,85.17
2023-01-13T19:40:09.606Z,85.2
2023-01-13T19:45:12.364Z,85.23
2023-01-13T19:50:13.859Z,85.24
2023-01-13T19:55:20.446Z,85.26
2023-01-13T20:00:12.153Z,85.27
2023-01-13T20:05:11.990Z,85.33
2023-01-13T20:10:14.096Z,85.31
2023-01-13T20:15:11.924Z,85.3
2023-01-13T20:20:16.272Z,85.32
2023-01-13T20:25:10.267Z,85.35
2023-01-13T20:30:13.523Z,85.35
2023-01-13T20:35:17.881Z,85.38
2023-01-13T20:40:19.117Z,85.39
2023-01-13T20:45:20.690Z,85.38
2023-01-13T20:50:22.258Z,85.39
2023-01-13T20:55:13.568Z,85.42
2023-01-13T21:00:16.856Z,85.43
2023-01-13T21:05:09.944Z,85.43
2023-01-13T21:10:15.171Z,85.42
2023-01-13T21:15:14.218Z,85.4
2023-01-13T21:20:06.754Z,85.43
2023-01-13T21:25:12.483Z,85.4
2023-01-13T21:30:05.798Z,85.4
2023-01-13T21:35:14.202Z,85.4
2023-01-13T21:40:11.983Z,85.38
2023-01-13T21:45:08.276Z,85.38
2023-01-13T21:50:10.087Z,85.4
2023-01-13T21:55:19.038Z,85.39
2023-01-13T22:00:13.430Z,85.38
2023-01-13T22:05:09.694Z,85.38
2023-01-13T22:10:02.671Z,85.37
2023-01-13T22:15:02.494Z,85.37
2023-01-13T22:20:02.452Z,85.39
2023-01-13T22:25:02.383Z,85.38
2023-01-13T22:30:02.307Z,85.36
2023-01-13T22:35:02.354Z,85.37
2023-01-13T22:40:02.315Z,85.36
2023-01-13T22:45:02.210Z,85.35
2023-01-13T22:50:02.156Z,85.35
2023-01-13T22:55:02.202Z,85.34
2023-01-13T23:00:02.418Z,85.36
2023-01-13T23:05:02.439Z,85.36
2023-01-13T23:10:02.507Z,85.36
2023-01-13T23:15:02.499Z,85.34
2023-01-13T23:20:02.543Z,85.33
2023-01-13T23:25:02.449Z,85.33
2023-01-13T23:30:02.502Z,85.33
2023-01-13T23:35:02.535Z,85.33
2023-01-13T23:40:02.552Z,85.33
2023-01-13T23:45:02.483Z,85.32
2023-01-13T23:50:02.329Z,85.32
2023-01-13T23:55:02.290Z,85.31
